Time;durP1;ratioP1;P1;durP2;ratioP2;P2;SDS_P1;SDS_P2;PMS_P1;PMS_P2;Temp;Humidity;BMP_temperature;BMP_pressure;BME280_temperature;BME280_humidity;BME280_pressure;Samples;Min_cycle;Max_cycle;Signal;HPM_P1;HPM_P2
2023/12/05 00:00:57;;;;;;;14.90;14.00;;;3.10;99.90;;;;;;4995201;28;20835;-74
2023/12/05 00:03:23;;;;;;;16.17;14.97;;;3.10;99.90;;;;;;5012759;28;20217;-74
2023/12/05 00:05:50;;;;;;;15.50;14.33;;;3.10;99.90;;;;;;4994863;28;20308;-74
2023/12/05 00:08:17;;;;;;;14.93;13.93;;;3.10;99.90;;;;;;4995104;28;20198;-74
2023/12/05 00:10:44;;;;;;;14.93;13.83;;;3.10;99.90;;;;;;4995029;28;20582;-74
2023/12/05 00:13:11;;;;;;;15.67;14.47;;;3.10;99.90;;;;;;5002979;28;20732;-74
2023/12/05 00:15:39;;;;;;;15.30;14.20;;;3.10;99.90;;;;;;5005186;28;20221;-73
2023/12/05 00:18:08;;;;;;;14.87;13.87;;;3.20;99.90;;;;;;4994927;28;20209;-75
2023/12/05 00:20:35;;;;;;;15.17;14.17;;;3.20;99.90;;;;;;5011146;28;20217;-74
2023/12/05 00:23:01;;;;;;;14.40;13.50;;;3.20;99.90;;;;;;4993760;28;20213;-74
2023/12/05 00:25:28;;;;;;;14.90;13.80;;;3.20;99.90;;;;;;4994492;28;20233;-74
2023/12/05 00:27:55;;;;;;;15.37;14.30;;;3.20;99.90;;;;;;4994643;28;20619;-74
2023/12/05 00:30:22;;;;;;;15.10;14.07;;;3.20;99.90;;;;;;4993266;28;20204;-74
2023/12/05 00:32:50;;;;;;;15.07;13.97;;;3.30;99.90;;;;;;4994229;28;20897;-74
2023/12/05 00:35:18;;;;;;;15.43;14.43;;;3.30;99.90;;;;;;4994403;28;20569;-74
2023/12/05 00:37:45;;;;;;;14.83;13.73;;;3.30;99.90;;;;;;4994341;28;20194;-74
2023/12/05 00:40:12;;;;;;;15.03;13.93;;;3.30;99.90;;;;;;4993032;28;20232;-74
2023/12/05 00:42:39;;;;;;;14.83;13.73;;;3.30;99.90;;;;;;4993071;28;20275;-74
2023/12/05 00:45:07;;;;;;;15.60;14.43;;;3.20;99.90;;;;;;4993054;28;20201;-74
2023/12/05 00:47:33;;;;;;;15.07;14.07;;;3.20;99.90;;;;;;4994613;28;20208;-74
2023/12/05 00:50:01;;;;;;;15.17;14.10;;;3.20;99.90;;;;;;4994251;28;20273;-74
2023/12/05 00:52:28;;;;;;;15.10;14.10;;;3.20;99.90;;;;;;4994184;28;20359;-74
2023/12/05 00:54:54;;;;;;;15.10;14.00;;;3.20;99.90;;;;;;4993961;28;20208;-74
2023/12/05 00:57:21;;;;;;;15.40;14.40;;;3.20;99.90;;;;;;4993952;28;20193;-74
2023/12/05 00:59:48;;;;;;;14.80;13.80;;;3.30;99.90;;;;;;4992872;28;20259;-75
2023/12/05 01:02:14;;;;;;;15.57;14.47;;;3.20;99.90;;;;;;4993963;28;20646;-74
2023/12/05 01:04:41;;;;;;;15.40;14.30;;;3.20;99.90;;;;;;4994054;28;20271;-74
2023/12/05 01:07:12;;;;;;;15.40;14.30;;;3.20;99.90;;;;;;4993822;28;20288;-74
2023/12/05 01:09:39;;;;;;;15.47;14.37;;;3.20;99.90;;;;;;4983909;28;20197;-74
2023/12/05 01:12:06;;;;;;;15.30;14.27;;;3.20;99.90;;;;;;4994083;28;20197;-74
2023/12/05 01:14:33;;;;;;;15.03;14.07;;;3.20;99.90;;;;;;4993707;28;20666;-74
2023/12/05 01:17:00;;;;;;;15.07;14.00;;;3.20;99.90;;;;;;4992313;28;20711;-76
2023/12/05 01:19:26;;;;;;;15.27;14.27;;;3.10;99.90;;;;;;4992252;28;20205;-74
2023/12/05 01:21:53;;;;;;;15.20;14.20;;;3.10;99.90;;;;;;4993787;28;20732;-74
2023/12/05 01:24:22;;;;;;;14.93;13.93;;;3.10;99.90;;;;;;4993400;28;20626;-74
2023/12/05 01:26:49;;;;;;;14.53;13.57;;;3.10;99.90;;;;;;4998203;28;20220;-74
2023/12/05 01:29:16;;;;;;;15.57;14.47;;;3.10;99.90;;;;;;5007450;28;20195;-74
2023/12/05 01:31:43;;;;;;;14.60;13.70;;;3.10;99.90;;;;;;4992190;28;20661;-74
2023/12/05 01:34:10;;;;;;;15.07;14.07;;;3.00;99.90;;;;;;4992237;28;20193;-74
2023/12/05 01:36:37;;;;;;;15.20;14.20;;;3.10;99.90;;;;;;4991093;28;20220;-74
2023/12/05 01:39:04;;;;;;;14.20;13.30;;;3.10;99.90;;;;;;4993524;28;20265;-74
2023/12/05 01:41:33;;;;;;;15.13;14.03;;;3.00;99.90;;;;;;4993174;28;20208;-74
2023/12/05 01:44:00;;;;;;;15.17;14.10;;;3.10;99.90;;;;;;4992387;28;20225;-73
2023/12/05 01:46:26;;;;;;;15.30;14.10;;;3.00;99.90;;;;;;4992701;28;20229;-74
2023/12/05 01:48:53;;;;;;;14.60;13.60;;;3.00;99.90;;;;;;4993272;28;20201;-74
2023/12/05 01:51:20;;;;;;;15.23;14.20;;;3.00;99.90;;;;;;4991701;28;20232;-74
2023/12/05 01:53:48;;;;;;;14.97;13.97;;;3.10;99.90;;;;;;4993073;28;20197;-74
2023/12/05 01:56:15;;;;;;;15.67;14.53;;;3.00;99.90;;;;;;4991338;28;20229;-74
2023/12/05 01:58:44;;;;;;;15.10;14.10;;;3.10;99.90;;;;;;5005144;28;20199;-74
2023/12/05 02:01:15;;;;;;;14.97;13.97;;;3.10;99.90;;;;;;4996203;28;20676;-74
2023/12/05 02:03:43;;;;;;;14.80;13.80;;;3.10;99.90;;;;;;4989948;28;20205;-73
2023/12/05 02:06:11;;;;;;;14.50;13.60;;;3.10;99.90;;;;;;4992702;28;20642;-74
2023/12/05 02:08:39;;;;;;;14.70;13.70;;;3.10;99.90;;;;;;4992888;28;20320;-74
2023/12/05 02:11:06;;;;;;;14.77;13.87;;;3.10;99.90;;;;;;4998790;28;20213;-74
2023/12/05 02:13:33;;;;;;;14.47;13.57;;;3.10;99.90;;;;;;5003613;28;20224;-74
2023/12/05 02:16:20;;;;;;;14.97;13.97;;;3.10;99.90;;;;;;4991005;28;20221;-74
2023/12/05 02:18:53;;;;;;;14.77;13.73;;;3.10;99.90;;;;;;4993370;28;20197;-74
2023/12/05 02:21:25;;;;;;;14.53;13.63;;;3.10;99.90;;;;;;4992510;28;20197;-74
2023/12/05 02:24:25;;;;;;;15.00;14.03;;;3.10;99.90;;;;;;4991310;28;20217;-74
2023/12/05 02:26:59;;;;;;;15.37;14.37;;;3.00;99.90;;;;;;4990997;28;20213;-74
2023/12/05 02:29:27;;;;;;;15.40;14.40;;;3.10;99.90;;;;;;4991754;28;20201;-74
2023/12/05 02:31:55;;;;;;;14.40;13.50;;;3.00;99.90;;;;;;4991319;28;20201;-74
2023/12/05 02:34:22;;;;;;;15.70;14.50;;;3.00;99.90;;;;;;4992340;28;20220;-73
2023/12/05 02:36:58;;;;;;;14.50;13.60;;;3.00;99.90;;;;;;4991054;28;20279;-74
2023/12/05 02:39:31;;;;;;;15.10;14.00;;;3.00;99.90;;;;;;4990558;28;20201;-74
2023/12/05 02:42:01;;;;;;;14.70;13.70;;;3.10;99.90;;;;;;4990941;28;20247;-74
2023/12/05 02:44:37;;;;;;;15.20;14.10;;;3.10;99.90;;;;;;4992049;28;20379;-74
2023/12/05 02:47:07;;;;;;;14.90;13.97;;;3.20;99.90;;;;;;4992063;28;20275;-74
2023/12/05 02:49:34;;;;;;;14.97;13.97;;;3.20;99.90;;;;;;4990873;28;20197;-74
2023/12/05 02:52:01;;;;;;;15.27;14.27;;;3.20;99.90;;;;;;4992066;28;20281;-74
2023/12/05 02:54:27;;;;;;;15.03;14.10;;;3.20;99.90;;;;;;4990677;28;20201;-74
2023/12/05 02:56:54;;;;;;;14.70;13.80;;;3.20;99.90;;;;;;4990291;28;20248;-74
2023/12/05 02:59:21;;;;;;;14.83;13.83;;;3.20;99.90;;;;;;4993087;28;20255;-74
2023/12/05 03:01:49;;;;;;;14.30;13.40;;;3.20;99.90;;;;;;5009827;28;20235;-74
2023/12/05 03:04:17;;;;;;;14.57;13.67;;;3.20;99.90;;;;;;4991919;28;20209;-74
2023/12/05 03:06:44;;;;;;;14.73;13.73;;;3.30;99.90;;;;;;4991772;28;20213;-74
2023/12/05 03:09:11;;;;;;;15.03;14.03;;;3.20;99.90;;;;;;4991941;28;20276;-74
2023/12/05 03:11:38;;;;;;;14.73;13.83;;;3.20;99.90;;;;;;4995050;28;20709;-74
2023/12/05 03:14:04;;;;;;;15.67;14.67;;;3.20;99.90;;;;;;4990543;28;20205;-74
2023/12/05 03:16:31;;;;;;;16.57;15.50;;;3.10;99.90;;;;;;4991618;28;20217;-74
2023/12/05 03:18:59;;;;;;;15.57;14.57;;;3.10;99.90;;;;;;4990511;28;20289;-74
2023/12/05 03:21:26;;;;;;;15.20;14.20;;;3.10;99.90;;;;;;4991882;28;20201;-74
2023/12/05 03:23:53;;;;;;;15.30;14.30;;;3.10;99.90;;;;;;4991778;28;20221;-74
2023/12/05 03:26:21;;;;;;;15.27;14.17;;;3.10;99.90;;;;;;4992325;28;20280;-74
2023/12/05 03:28:48;;;;;;;16.13;15.10;;;3.00;99.90;;;;;;5010294;28;20726;-74
2023/12/05 03:31:15;;;;;;;14.97;14.03;;;3.00;99.90;;;;;;4990550;28;20205;-74
2023/12/05 03:33:42;;;;;;;15.87;14.77;;;3.00;99.90;;;;;;4991524;28;20292;-74
2023/12/05 03:36:12;;;;;;;15.40;14.40;;;3.00;99.90;;;;;;4991574;28;20256;-74
2023/12/05 03:38:39;;;;;;;15.10;14.13;;;2.90;99.90;;;;;;5001120;28;20619;-74
2023/12/05 03:41:06;;;;;;;16.13;15.03;;;2.90;99.90;;;;;;4998945;28;20207;-76
2023/12/05 03:43:33;;;;;;;15.93;14.83;;;2.90;99.90;;;;;;4990383;28;20229;-73
2023/12/05 03:46:00;;;;;;;15.60;14.60;;;2.90;99.90;;;;;;4991563;28;20221;-73
2023/12/05 03:48:26;;;;;;;15.13;14.20;;;2.90;99.90;;;;;;4990339;28;20228;-74
2023/12/05 03:50:53;;;;;;;15.30;14.20;;;2.90;99.90;;;;;;4991820;28;20643;-76
2023/12/05 03:53:21;;;;;;;15.77;14.77;;;2.90;99.90;;;;;;4984872;28;20198;-76
2023/12/05 03:55:48;;;;;;;16.53;15.13;;;2.90;99.90;;;;;;4997308;28;20256;-77
2023/12/05 03:58:15;;;;;;;15.43;14.33;;;2.90;99.90;;;;;;4985750;28;20217;-77
2023/12/05 04:00:42;;;;;;;16.90;15.70;;;2.80;99.90;;;;;;4992559;28;20204;-77
2023/12/05 04:03:08;;;;;;;16.67;15.50;;;2.80;99.90;;;;;;4994316;28;20233;-77
2023/12/05 04:05:35;;;;;;;15.73;14.63;;;2.90;99.90;;;;;;4991988;28;20213;-77
2023/12/05 04:08:02;;;;;;;16.60;15.43;;;2.90;99.90;;;;;;4992352;28;20204;-77
2023/12/05 04:10:30;;;;;;;15.30;14.37;;;2.80;99.90;;;;;;4994884;28;20201;-77
2023/12/05 04:12:57;;;;;;;15.87;14.67;;;2.80;99.90;;;;;;4994142;28;20614;-77
2023/12/05 04:15:24;;;;;;;16.23;15.13;;;2.80;99.90;;;;;;5011565;28;20225;-77
2023/12/05 04:17:51;;;;;;;15.77;14.77;;;2.80;99.90;;;;;;4996115;28;20281;-76
2023/12/05 04:20:18;;;;;;;16.07;15.00;;;2.80;99.90;;;;;;4993559;28;20735;-75
2023/12/05 04:22:44;;;;;;;15.83;14.83;;;2.80;99.90;;;;;;4995113;28;20193;-76
2023/12/05 04:25:11;;;;;;;15.97;14.97;;;2.70;99.90;;;;;;4985337;28;20264;-76
2023/12/05 04:27:39;;;;;;;16.17;15.13;;;2.70;99.90;;;;;;4994455;28;20221;-74
2023/12/05 04:30:07;;;;;;;17.27;16.07;;;2.60;99.90;;;;;;4996098;28;20255;-76
2023/12/05 04:32:34;;;;;;;17.10;15.90;;;2.50;99.90;;;;;;5013126;28;20864;-77
2023/12/05 04:35:01;;;;;;;17.97;16.67;;;2.50;99.90;;;;;;4995525;28;20684;-77
2023/12/05 04:37:28;;;;;;;16.90;15.70;;;2.40;99.90;;;;;;4999909;28;20560;-76
2023/12/05 04:39:54;;;;;;;17.33;16.10;;;2.30;99.90;;;;;;5011128;28;20729;-76
2023/12/05 04:42:21;;;;;;;16.90;15.77;;;2.20;99.90;;;;;;5000603;28;20260;-77
2023/12/05 04:44:49;;;;;;;16.97;15.77;;;2.20;99.90;;;;;;4994555;28;20228;-77
2023/12/05 04:47:16;;;;;;;16.93;15.77;;;2.10;99.90;;;;;;4991083;28;20252;-76
2023/12/05 04:49:43;;;;;;;17.50;16.20;;;2.10;99.90;;;;;;4993795;28;20197;-77
2023/12/05 04:52:10;;;;;;;17.87;16.60;;;2.10;99.90;;;;;;4994489;28;20198;-75
2023/12/05 04:54:36;;;;;;;18.53;17.23;;;2.00;99.90;;;;;;4994312;28;20259;-77
2023/12/05 04:57:03;;;;;;;18.07;16.57;;;2.00;99.90;;;;;;4993628;28;20221;-75
2023/12/05 04:59:30;;;;;;;18.57;17.17;;;2.00;99.90;;;;;;4992837;28;20668;-74
2023/12/05 05:01:58;;;;;;;17.67;16.47;;;1.90;99.90;;;;;;4994108;28;20215;-74
2023/12/05 05:04:25;;;;;;;17.93;16.67;;;1.90;99.90;;;;;;4992687;28;20217;-75
2023/12/05 05:06:52;;;;;;;18.17;16.87;;;1.90;99.90;;;;;;4997452;28;20244;-75
2023/12/05 05:09:19;;;;;;;17.47;16.27;;;2.00;99.90;;;;;;5008139;28;20743;-75
2023/12/05 05:11:46;;;;;;;18.00;16.80;;;2.00;99.90;;;;;;5004348;28;20197;-75
2023/12/05 05:14:13;;;;;;;18.17;16.77;;;2.00;99.90;;;;;;4993968;28;20231;-73
2023/12/05 05:16:39;;;;;;;17.20;16.00;;;2.00;99.90;;;;;;5003239;28;20216;-75
2023/12/05 05:19:08;;;;;;;17.63;16.43;;;2.10;99.90;;;;;;4993566;28;20197;-75
2023/12/05 05:21:35;;;;;;;17.93;16.70;;;2.20;99.90;;;;;;4992399;28;20205;-75
2023/12/05 05:24:02;;;;;;;17.30;16.10;;;2.20;99.90;;;;;;4993527;28;20719;-74
2023/12/05 05:26:29;;;;;;;17.00;15.90;;;2.30;99.90;;;;;;5010623;28;20220;-75
2023/12/05 05:28:55;;;;;;;16.83;15.73;;;2.40;99.90;;;;;;4999934;28;20224;-75
2023/12/05 05:31:22;;;;;;;17.20;16.00;;;2.40;99.90;;;;;;4994288;28;20182;-76
2023/12/05 05:33:49;;;;;;;17.10;16.00;;;2.50;99.90;;;;;;4993561;28;20202;-75
2023/12/05 05:36:17;;;;;;;17.37;16.13;;;2.60;99.90;;;;;;4991925;28;20225;-75
2023/12/05 05:38:44;;;;;;;16.67;15.57;;;2.70;99.90;;;;;;4987322;28;20603;-75
2023/12/05 05:41:11;;;;;;;16.13;15.07;;;2.80;99.90;;;;;;4993298;28;20189;-75
2023/12/05 05:43:38;;;;;;;15.83;14.73;;;2.90;99.90;;;;;;4993224;28;20201;-75
2023/12/05 05:46:05;;;;;;;16.43;15.30;;;2.90;99.90;;;;;;4992859;28;20299;-75
2023/12/05 05:48:32;;;;;;;16.87;15.73;;;3.00;99.90;;;;;;4992042;28;20201;-76
2023/12/05 05:50:59;;;;;;;16.27;15.17;;;3.00;99.90;;;;;;4993116;28;20209;-75
2023/12/05 05:53:27;;;;;;;16.77;15.70;;;3.10;99.90;;;;;;4997846;28;20256;-75
2023/12/05 05:55:54;;;;;;;15.87;14.87;;;3.10;99.90;;;;;;4991629;28;20229;-75
2023/12/05 05:58:20;;;;;;;16.50;15.40;;;3.10;99.90;;;;;;5009474;28;20196;-75
2023/12/05 06:00:47;;;;;;;17.13;15.93;;;3.00;99.90;;;;;;4994216;28;20248;-75
2023/12/05 06:03:14;;;;;;;16.80;15.70;;;2.90;99.90;;;;;;4991824;28;20280;-75
2023/12/05 06:05:41;;;;;;;17.07;15.97;;;2.90;99.90;;;;;;4996358;28;20217;-75
2023/12/05 06:08:08;;;;;;;16.73;15.47;;;2.80;99.90;;;;;;5001207;28;20270;-76
2023/12/05 06:10:36;;;;;;;16.07;14.97;;;2.80;99.90;;;;;;5003589;28;20208;-75
2023/12/05 06:13:03;;;;;;;16.23;15.13;;;2.70;99.90;;;;;;4992946;28;20228;-75
2023/12/05 06:15:30;;;;;;;16.10;15.00;;;2.70;99.90;;;;;;4991584;28;20228;-75
2023/12/05 06:17:57;;;;;;;16.10;15.10;;;2.60;99.90;;;;;;4992923;28;20222;-74
2023/12/05 06:20:24;;;;;;;16.67;15.67;;;2.60;99.90;;;;;;4992369;28;20283;-74
2023/12/05 06:22:51;;;;;;;15.80;14.80;;;2.60;99.90;;;;;;4992653;28;20224;-75
2023/12/05 06:25:17;;;;;;;15.70;14.60;;;2.60;99.90;;;;;;4991174;28;20712;-75
2023/12/05 06:27:46;;;;;;;16.03;15.00;;;2.60;99.90;;;;;;4992452;28;20668;-74
2023/12/05 06:30:13;;;;;;;15.53;14.50;;;2.50;99.90;;;;;;4990878;28;20205;-75
2023/12/05 06:32:40;;;;;;;15.27;14.27;;;2.50;99.90;;;;;;4992274;28;20197;-75
2023/12/05 06:35:08;;;;;;;15.03;14.10;;;2.50;99.90;;;;;;4996420;28;20251;-75
2023/12/05 06:37:34;;;;;;;15.23;14.33;;;2.50;99.90;;;;;;4992786;28;20259;-75
2023/12/05 06:40:01;;;;;;;15.80;14.80;;;2.50;99.90;;;;;;4992415;28;20220;-75
2023/12/05 06:42:28;;;;;;;15.63;14.53;;;2.50;99.90;;;;;;4992101;28;20228;-75
2023/12/05 06:44:58;;;;;;;15.23;14.17;;;2.50;99.90;;;;;;4996408;28;20220;-78
2023/12/05 06:47:25;;;;;;;15.50;14.50;;;2.50;99.90;;;;;;5006120;28;20197;-79
2023/12/05 06:49:52;;;;;;;16.47;15.37;;;2.50;99.90;;;;;;5002243;28;20201;-80
2023/12/05 06:52:19;;;;;;;16.00;14.70;;;2.60;99.90;;;;;;4994752;28;20233;-80
2023/12/05 06:54:46;;;;;;;15.87;14.77;;;2.60;99.90;;;;;;4993624;28;20672;-80
2023/12/05 06:57:13;;;;;;;15.20;14.20;;;2.70;99.90;;;;;;5005738;28;20259;-78
2023/12/05 06:59:41;;;;;;;14.87;13.97;;;2.70;99.90;;;;;;4998213;28;20200;-78
2023/12/05 07:02:09;;;;;;;16.98;15.77;;;2.70;99.90;;;;;;5004780;28;20515;-78
2023/12/05 07:04:36;;;;;;;15.60;14.60;;;2.80;99.90;;;;;;4992877;28;20245;-78
2023/12/05 07:07:03;;;;;;;15.23;14.23;;;2.80;99.90;;;;;;5001854;28;20634;-78
2023/12/05 07:09:32;;;;;;;15.33;14.30;;;2.90;99.90;;;;;;4992163;28;20208;-77
2023/12/05 07:11:59;;;;;;;16.03;14.87;;;2.90;99.90;;;;;;4991066;28;20220;-78
2023/12/05 07:14:26;;;;;;;14.93;13.93;;;3.00;99.90;;;;;;5004458;28;20228;-78
2023/12/05 07:16:53;;;;;;;15.10;14.10;;;3.00;99.90;;;;;;4991870;28;20221;-77
2023/12/05 07:19:21;;;;;;;16.17;14.97;;;3.10;99.90;;;;;;4992310;28;20206;-77
2023/12/05 07:21:47;;;;;;;15.10;14.20;;;3.10;99.90;;;;;;4986335;28;20228;-77
2023/12/05 07:24:14;;;;;;;16.37;15.27;;;3.20;99.90;;;;;;4996186;28;20205;-78
2023/12/05 07:26:41;;;;;;;15.90;14.77;;;3.20;99.90;;;;;;4992354;28;20252;-77
2023/12/05 07:29:08;;;;;;;15.03;14.13;;;3.20;99.90;;;;;;4992550;28;20201;-77
2023/12/05 07:31:35;;;;;;;15.10;14.20;;;3.20;99.90;;;;;;5001753;28;20203;-78
2023/12/05 07:34:02;;;;;;;15.43;14.43;;;3.10;99.90;;;;;;4993803;28;20205;-77
2023/12/05 07:36:30;;;;;;;16.30;15.20;;;3.10;99.90;;;;;;4993577;28;20213;-77
2023/12/05 07:38:57;;;;;;;17.53;16.23;;;3.20;99.90;;;;;;4993635;28;20194;-76
2023/12/05 07:41:25;;;;;;;16.53;15.33;;;3.20;99.90;;;;;;4991910;28;20280;-76
2023/12/05 07:43:52;;;;;;;16.23;15.13;;;3.30;99.90;;;;;;5001436;28;20202;-76
2023/12/05 07:46:19;;;;;;;15.50;14.50;;;3.40;99.90;;;;;;4995593;28;20759;-76
2023/12/05 07:48:46;;;;;;;16.57;15.37;;;3.40;99.90;;;;;;5004048;28;20193;-76
2023/12/05 07:51:16;;;;;;;17.40;16.20;;;3.50;99.90;;;;;;4994387;28;20194;-76
2023/12/05 07:53:44;;;;;;;17.37;15.97;;;3.50;99.90;;;;;;4995999;28;20634;-76
2023/12/05 07:56:11;;;;;;;17.27;15.97;;;3.60;99.90;;;;;;4989659;28;20268;-76
2023/12/05 07:58:38;;;;;;;16.47;15.33;;;3.70;99.90;;;;;;4987447;28;20198;-75
2023/12/05 08:01:06;;;;;;;16.47;15.37;;;3.90;99.90;;;;;;4996731;28;20201;-78
2023/12/05 08:03:34;;;;;;;20.60;18.70;;;4.00;99.90;;;;;;5005113;28;20197;-77
2023/12/05 08:06:02;;;;;;;16.90;15.50;;;4.20;99.90;;;;;;4996032;28;20590;-78
2023/12/05 08:08:30;;;;;;;16.03;14.93;;;4.30;99.90;;;;;;4998782;28;20202;-75
2023/12/05 08:10:58;;;;;;;15.90;14.80;;;4.30;99.90;;;;;;5010893;28;20201;-77
2023/12/05 08:13:25;;;;;;;15.50;14.50;;;4.40;99.90;;;;;;4998965;28;20202;-75
2023/12/05 08:15:54;;;;;;;15.07;13.83;;;4.40;99.90;;;;;;4993754;28;20313;-75
2023/12/05 08:18:21;;;;;;;15.20;14.00;;;4.30;99.90;;;;;;4999797;28;20205;-76
2023/12/05 08:20:48;;;;;;;15.17;13.97;;;4.30;99.90;;;;;;4988433;28;20233;-77
2023/12/05 08:23:15;;;;;;;15.37;14.37;;;4.40;99.90;;;;;;4996131;28;20615;-77
2023/12/05 08:25:41;;;;;;;15.73;14.63;;;4.70;99.90;;;;;;4998237;28;20244;-75
2023/12/05 08:28:09;;;;;;;15.20;14.13;;;5.00;99.90;;;;;;4996847;28;20223;-75
2023/12/05 08:30:37;;;;;;;14.80;13.70;;;5.20;99.90;;;;;;5012481;28;20203;-75
2023/12/05 08:33:05;;;;;;;14.80;13.80;;;5.40;99.90;;;;;;5002237;28;20553;-75
2023/12/05 08:35:32;;;;;;;14.97;13.97;;;5.60;99.90;;;;;;4998186;28;20213;-74
2023/12/05 08:37:59;;;;;;;14.80;13.80;;;5.80;99.90;;;;;;4993854;28;20670;-76
2023/12/05 08:40:26;;;;;;;14.70;13.80;;;6.00;99.90;;;;;;4994409;28;20260;-76
2023/12/05 08:42:53;;;;;;;14.33;13.33;;;6.10;99.90;;;;;;5003676;28;20197;-76
2023/12/05 08:45:21;;;;;;;14.40;13.50;;;6.00;99.90;;;;;;4992634;28;20448;-76
2023/12/05 08:47:52;;;;;;;13.87;12.97;;;5.90;99.90;;;;;;4986522;28;20205;-76
2023/12/05 08:50:19;;;;;;;13.93;12.93;;;5.80;99.90;;;;;;4994830;28;20284;-75
2023/12/05 08:52:46;;;;;;;15.07;14.07;;;5.80;99.90;;;;;;5013205;28;20336;-75
2023/12/05 08:55:13;;;;;;;14.13;13.23;;;5.70;99.90;;;;;;4994306;28;20263;-79
2023/12/05 08:57:40;;;;;;;14.47;13.57;;;5.50;99.90;;;;;;5004648;28;20227;-76
2023/12/05 09:00:08;;;;;;;14.33;13.33;;;5.30;99.90;;;;;;5012939;28;20204;-75
2023/12/05 09:02:36;;;;;;;14.60;13.50;;;5.20;99.90;;;;;;4996053;28;20205;-76
2023/12/05 09:05:03;;;;;;;14.60;13.70;;;5.00;99.90;;;;;;4994147;28;20210;-76
2023/12/05 09:07:30;;;;;;;14.27;13.17;;;4.90;99.90;;;;;;4992500;28;20211;-77
2023/12/05 09:09:57;;;;;;;14.90;13.70;;;4.90;99.90;;;;;;4994931;28;20206;-77
2023/12/05 09:12:24;;;;;;;14.40;13.50;;;5.00;99.90;;;;;;4993778;28;20226;-76
2023/12/05 09:14:51;;;;;;;14.30;13.30;;;5.10;99.90;;;;;;4992565;28;20211;-76
2023/12/05 09:17:18;;;;;;;14.93;13.70;;;5.00;99.90;;;;;;4992814;28;20250;-75
2023/12/05 09:19:50;;;;;;;13.77;12.73;;;5.00;99.90;;;;;;4992248;28;20266;-81
2023/12/05 09:22:17;;;;;;;16.20;14.90;;;5.00;99.90;;;;;;4992216;28;20629;-74
2023/12/05 09:24:44;;;;;;;14.97;13.87;;;5.00;99.90;;;;;;4992427;28;20253;-75
2023/12/05 09:27:11;;;;;;;14.60;13.60;;;5.00;99.90;;;;;;4988118;28;20786;-75
2023/12/05 09:29:39;;;;;;;15.03;13.93;;;5.10;99.90;;;;;;5001657;28;20195;-76
2023/12/05 09:32:06;;;;;;;14.03;13.03;;;5.20;99.90;;;;;;4993403;28;20663;-76
2023/12/05 09:34:32;;;;;;;14.20;13.20;;;5.40;99.90;;;;;;4992735;28;20623;-77
2023/12/05 09:37:01;;;;;;;13.80;12.90;;;5.40;99.90;;;;;;4993170;28;20675;-76
2023/12/05 09:39:29;;;;;;;14.65;13.75;;;5.60;99.90;;;;;;4991060;28;20499;-76
2023/12/05 09:41:58;;;;;;;13.70;12.80;;;5.60;99.90;;;;;;5004657;28;20770;-76
2023/12/05 09:44:27;;;;;;;13.60;12.70;;;5.70;99.90;;;;;;4991767;28;20199;-76
2023/12/05 09:46:59;;;;;;;13.60;12.70;;;5.80;99.90;;;;;;4992752;28;20217;-76
2023/12/05 09:49:28;;;;;;;13.77;12.80;;;5.90;99.90;;;;;;4992050;28;20266;-76
2023/12/05 09:51:55;;;;;;;14.10;13.20;;;6.10;99.90;;;;;;4991705;28;20457;-76
2023/12/05 09:54:25;;;;;;;13.93;13.03;;;6.20;99.90;;;;;;4992983;28;20251;-76
2023/12/05 09:56:54;;;;;;;13.60;12.70;;;6.40;99.90;;;;;;4994295;28;20279;-75
2023/12/05 09:59:21;;;;;;;13.67;12.53;;;6.30;99.90;;;;;;4993266;28;20201;-79
2023/12/05 10:01:48;;;;;;;12.50;11.80;;;6.30;99.90;;;;;;4994956;28;20238;-75
2023/12/05 10:04:18;;;;;;;12.63;11.80;;;6.30;99.90;;;;;;5001167;28;20227;-75
2023/12/05 10:06:48;;;;;;;12.93;12.13;;;6.40;99.90;;;;;;4991911;28;20734;-75
2023/12/05 10:09:16;;;;;;;13.10;12.30;;;6.50;99.90;;;;;;4992682;28;20252;-75
2023/12/05 10:11:45;;;;;;;12.70;12.00;;;6.50;99.90;;;;;;4992725;28;20209;-76
2023/12/05 10:14:12;;;;;;;12.80;12.10;;;6.50;99.90;;;;;;4992894;28;20196;-75
2023/12/05 10:16:40;;;;;;;12.57;11.80;;;6.50;99.90;;;;;;4991128;28;20244;-75
2023/12/05 10:19:09;;;;;;;12.37;11.60;;;6.60;99.90;;;;;;4992665;28;20726;-76
2023/12/05 10:21:37;;;;;;;12.60;11.90;;;6.60;99.90;;;;;;4992560;28;20671;-75
2023/12/05 10:24:05;;;;;;;12.70;12.00;;;6.70;99.90;;;;;;5001789;28;20826;-76
2023/12/05 10:26:32;;;;;;;12.90;12.20;;;6.70;99.90;;;;;;4992222;28;20235;-75
2023/12/05 10:29:00;;;;;;;12.70;12.00;;;6.70;99.90;;;;;;4992385;28;20235;-75
2023/12/05 10:31:27;;;;;;;12.63;11.73;;;6.80;99.90;;;;;;4991216;28;20208;-75
2023/12/05 10:34:04;;;;;;;12.10;11.40;;;6.90;99.90;;;;;;4992161;28;20197;-75
2023/12/05 10:36:31;;;;;;;12.33;11.57;;;6.90;99.90;;;;;;4991924;28;20590;-76
2023/12/05 10:38:57;;;;;;;12.10;11.50;;;7.00;99.90;;;;;;4990642;28;20229;-75
2023/12/05 10:41:28;;;;;;;12.70;11.90;;;7.10;99.90;;;;;;4992143;28;20201;-76
2023/12/05 10:43:56;;;;;;;12.40;11.70;;;7.20;99.90;;;;;;4984919;28;20288;-75
2023/12/05 10:46:24;;;;;;;12.40;11.80;;;7.20;99.90;;;;;;4991759;28;20591;-76
2023/12/05 10:48:51;;;;;;;12.30;11.70;;;7.20;99.90;;;;;;4991018;28;20863;-76
2023/12/05 10:51:18;;;;;;;12.20;11.60;;;7.10;99.90;;;;;;4991412;28;20240;-76
2023/12/05 10:53:45;;;;;;;13.00;12.20;;;7.00;99.90;;;;;;4988989;28;20243;-75
2023/12/05 10:56:13;;;;;;;12.53;11.80;;;6.90;99.90;;;;;;4992091;28;20221;-75
2023/12/05 10:58:42;;;;;;;12.50;11.80;;;6.80;99.90;;;;;;4992087;28;20235;-75
2023/12/05 11:01:10;;;;;;;12.40;11.70;;;6.70;99.90;;;;;;4992483;28;20197;-78
2023/12/05 11:03:39;;;;;;;12.80;12.10;;;6.60;99.90;;;;;;4991463;28;20228;-76
2023/12/05 11:06:07;;;;;;;12.50;11.77;;;6.50;99.90;;;;;;4991682;28;20579;-75
2023/12/05 11:08:34;;;;;;;12.90;12.20;;;6.50;99.90;;;;;;5000969;28;20223;-76
2023/12/05 11:11:02;;;;;;;12.10;11.40;;;6.50;99.90;;;;;;4991896;28;20209;-76
2023/12/05 11:13:39;;;;;;;12.33;11.57;;;6.50;99.90;;;;;;4992840;28;20209;-79
2023/12/05 11:16:14;;;;;;;12.50;11.80;;;6.50;99.90;;;;;;4991607;28;20209;-76
2023/12/05 11:18:44;;;;;;;12.67;11.87;;;6.50;99.90;;;;;;4994462;28;20262;-76
2023/12/05 11:21:26;;;;;;;12.40;11.70;;;6.50;99.90;;;;;;5009868;28;20204;-76
2023/12/05 11:24:25;;;;;;;12.57;11.87;;;6.50;99.90;;;;;;4994524;28;20200;-76
2023/12/05 11:27:10;;;;;;;12.50;11.60;;;6.50;99.90;;;;;;4995116;28;20295;-75
2023/12/05 11:29:58;;;;;;;11.93;11.13;;;6.50;99.90;;;;;;4995401;28;20203;-76
2023/12/05 11:32:34;;;;;;;12.63;11.73;;;6.50;99.90;;;;;;4996388;28;20255;-78
2023/12/05 11:35:11;;;;;;;12.10;11.40;;;6.50;99.90;;;;;;4995981;28;20204;-76
2023/12/05 11:38:05;;;;;;;12.37;11.60;;;6.50;99.90;;;;;;4995414;28;20204;-75
2023/12/05 11:40:32;;;;;;;11.50;10.90;;;6.50;99.90;;;;;;4995357;28;20675;-75
2023/12/05 11:43:06;;;;;;;11.57;10.87;;;6.50;99.90;;;;;;4995557;28;20223;-75
2023/12/05 11:45:35;;;;;;;11.60;11.00;;;6.50;99.90;;;;;;4999388;28;20724;-74
2023/12/05 11:48:03;;;;;;;11.70;11.00;;;6.50;99.90;;;;;;4995591;28;20240;-75
2023/12/05 11:50:41;;;;;;;11.70;11.00;;;6.50;99.90;;;;;;4994071;28;20219;-75
2023/12/05 11:53:08;;;;;;;11.50;10.90;;;6.50;99.90;;;;;;4994107;28;20201;-75
2023/12/05 11:55:36;;;;;;;11.10;10.50;;;6.50;99.90;;;;;;4994657;28;20233;-75
2023/12/05 11:58:02;;;;;;;10.80;10.20;;;6.50;99.90;;;;;;4995211;28;20204;-76
2023/12/05 12:00:31;;;;;;;11.57;10.97;;;6.50;99.90;;;;;;4995022;28;20197;-75
2023/12/05 12:03:01;;;;;;;11.20;10.60;;;6.50;99.90;;;;;;4987242;28;20243;-76
2023/12/05 12:05:28;;;;;;;11.40;10.80;;;6.50;99.90;;;;;;4994690;28;20217;-75
2023/12/05 12:07:57;;;;;;;11.20;10.60;;;6.50;99.90;;;;;;4994584;28;20244;-75
2023/12/05 12:10:25;;;;;;;11.73;11.00;;;6.60;99.90;;;;;;4995057;28;20212;-76
2023/12/05 12:12:52;;;;;;;11.63;11.03;;;6.60;99.90;;;;;;4993856;28;20267;-76
2023/12/05 12:15:21;;;;;;;12.20;11.50;;;6.60;99.90;;;;;;4993625;28;20311;-75
2023/12/05 12:17:48;;;;;;;11.70;10.80;;;6.60;99.90;;;;;;4993983;28;20201;-76
2023/12/05 12:20:15;;;;;;;11.23;10.60;;;6.60;99.90;;;;;;4995000;28;20631;-76
2023/12/05 12:22:43;;;;;;;11.57;10.87;;;6.60;99.90;;;;;;4993752;28;20204;-77
2023/12/05 12:25:12;;;;;;;11.47;10.77;;;6.60;99.90;;;;;;4988351;28;20606;-76
2023/12/05 12:27:39;;;;;;;11.23;10.60;;;6.60;99.90;;;;;;4994729;28;20216;-76
2023/12/05 12:30:09;;;;;;;11.57;10.97;;;6.60;99.90;;;;;;4994186;28;20193;-76
2023/12/05 12:32:36;;;;;;;11.87;11.17;;;6.60;99.90;;;;;;4993335;28;20625;-76
2023/12/05 12:35:05;;;;;;;12.53;11.70;;;6.70;99.90;;;;;;4993430;28;20209;-76
2023/12/05 12:37:32;;;;;;;12.03;11.23;;;6.60;99.90;;;;;;4994539;28;20220;-76
2023/12/05 12:40:00;;;;;;;12.00;11.30;;;6.60;99.90;;;;;;4994305;28;20579;-76